sensor_id;sensor_type;location;lat;lon;timestamp;pressure;altitude;pressure_sealevel;temperature;humidity
70407;BME280;57821;52.202;0.154;2023-02-14T00:02:18;103263.25;;;3.90;87.52
70407;BME280;57821;52.202;0.154;2023-02-14T00:04:44;103255.25;;;3.86;87.33
70407;BME280;57821;52.202;0.154;2023-02-14T00:07:11;103266.25;;;3.83;87.49
70407;BME280;57821;52.202;0.154;2023-02-14T00:09:38;103260.00;;;3.80;87.23
70407;BME280;57821;52.202;0.154;2023-02-14T00:12:05;103261.63;;;3.78;86.70
70407;BME280;57821;52.202;0.154;2023-02-14T00:14:31;103263.00;;;3.72;87.50
70407;BME280;57821;52.202;0.154;2023-02-14T00:16:58;103262.91;;;3.71;88.16
70407;BME280;57821;52.202;0.154;2023-02-14T00:19:25;103258.34;;;3.67;87.54
70407;BME280;57821;52.202;0.154;2023-02-14T00:21:51;103263.28;;;3.64;87.79
70407;BME280;57821;52.202;0.154;2023-02-14T00:24:23;103252.34;;;3.53;87.50
70407;BME280;57821;52.202;0.154;2023-02-14T00:26:51;103257.19;;;3.49;86.99
70407;BME280;57821;52.202;0.154;2023-02-14T00:29:29;103261.31;;;3.47;86.16
70407;BME280;57821;52.202;0.154;2023-02-14T00:31:56;103263.47;;;3.41;86.68
70407;BME280;57821;52.202;0.154;2023-02-14T00:34:23;103257.06;;;3.34;86.57
70407;BME280;57821;52.202;0.154;2023-02-14T00:36:50;103262.69;;;3.28;85.45
70407;BME280;57821;52.202;0.154;2023-02-14T00:39:18;103259.72;;;3.22;85.24
70407;BME280;57821;52.202;0.154;2023-02-14T00:41:45;103253.22;;;3.14;85.19
70407;BME280;57821;52.202;0.154;2023-02-14T00:44:12;103257.03;;;3.08;85.49
70407;BME280;57821;52.202;0.154;2023-02-14T00:46:39;103250.63;;;3.01;86.01
70407;BME280;57821;52.202;0.154;2023-02-14T00:49:06;103253.56;;;2.94;85.88
70407;BME280;57821;52.202;0.154;2023-02-14T00:51:32;103254.03;;;2.88;85.69
70407;BME280;57821;52.202;0.154;2023-02-14T00:54:00;103248.38;;;2.81;85.07
70407;BME280;57821;52.202;0.154;2023-02-14T00:56:29;103241.19;;;2.75;85.11
70407;BME280;57821;52.202;0.154;2023-02-14T00:58:56;103241.66;;;2.70;85.81
70407;BME280;57821;52.202;0.154;2023-02-14T01:01:22;103248.94;;;2.64;85.71
70407;BME280;57821;52.202;0.154;2023-02-14T01:03:49;103251.06;;;2.58;85.37
70407;BME280;57821;52.202;0.154;2023-02-14T01:06:17;103249.75;;;2.51;85.29
70407;BME280;57821;52.202;0.154;2023-02-14T01:08:44;103245.09;;;2.45;85.89
70407;BME280;57821;52.202;0.154;2023-02-14T01:11:21;103240.38;;;2.38;86.02
70407;BME280;57821;52.202;0.154;2023-02-14T01:13:49;103242.59;;;2.34;85.56
70407;BME280;57821;52.202;0.154;2023-02-14T01:16:19;103240.50;;;2.28;85.54
70407;BME280;57821;52.202;0.154;2023-02-14T01:18:47;103242.75;;;2.24;85.21
70407;BME280;57821;52.202;0.154;2023-02-14T01:21:44;103244.00;;;2.17;85.61
70407;BME280;57821;52.202;0.154;2023-02-14T01:24:11;103239.44;;;2.13;85.74
70407;BME280;57821;52.202;0.154;2023-02-14T01:26:40;103240.81;;;2.08;85.65
70407;BME280;57821;52.202;0.154;2023-02-14T01:29:07;103235.25;;;2.02;85.86
70407;BME280;57821;52.202;0.154;2023-02-14T01:31:34;103234.81;;;1.96;85.41
70407;BME280;57821;52.202;0.154;2023-02-14T01:34:01;103233.81;;;1.94;85.67
70407;BME280;57821;52.202;0.154;2023-02-14T01:36:37;103228.06;;;1.85;85.70
70407;BME280;57821;52.202;0.154;2023-02-14T01:39:06;103232.06;;;1.81;85.91
70407;BME280;57821;52.202;0.154;2023-02-14T01:41:36;103239.06;;;1.84;85.67
70407;BME280;57821;52.202;0.154;2023-02-14T01:44:06;103224.84;;;1.76;85.45
70407;BME280;57821;52.202;0.154;2023-02-14T01:46:34;103224.63;;;1.73;85.56
70407;BME280;57821;52.202;0.154;2023-02-14T01:52:11;103220.88;;;1.68;85.45
70407;BME280;57821;52.202;0.154;2023-02-14T01:54:47;103226.44;;;1.62;85.74
70407;BME280;57821;52.202;0.154;2023-02-14T01:57:17;103212.00;;;1.51;85.35
70407;BME280;57821;52.202;0.154;2023-02-14T01:59:50;103231.66;;;1.52;85.53
70407;BME280;57821;52.202;0.154;2023-02-14T02:02:18;103226.22;;;1.47;85.46
70407;BME280;57821;52.202;0.154;2023-02-14T02:04:45;103226.91;;;1.45;85.48
70407;BME280;57821;52.202;0.154;2023-02-14T02:07:17;103203.97;;;1.35;85.74
70407;BME280;57821;52.202;0.154;2023-02-14T02:09:57;103218.66;;;1.37;85.01
70407;BME280;57821;52.202;0.154;2023-02-14T02:12:26;103213.31;;;1.34;85.47
70407;BME280;57821;52.202;0.154;2023-02-14T02:14:57;103220.91;;;1.33;85.57
70407;BME280;57821;52.202;0.154;2023-02-14T02:20:43;103213.66;;;1.27;85.87
70407;BME280;57821;52.202;0.154;2023-02-14T02:39:37;103214.09;;;1.10;85.63
70407;BME280;57821;52.202;0.154;2023-02-14T02:45:27;103199.44;;;1.07;85.53
70407;BME280;57821;52.202;0.154;2023-02-14T02:48:15;103211.31;;;1.07;85.79
70407;BME280;57821;52.202;0.154;2023-02-14T02:50:46;103207.53;;;1.02;85.34
70407;BME280;57821;52.202;0.154;2023-02-14T02:56:00;103204.22;;;1.03;85.48
70407;BME280;57821;52.202;0.154;2023-02-14T02:58:34;103204.09;;;1.01;85.63
70407;BME280;57821;52.202;0.154;2023-02-14T03:01:08;103203.19;;;1.01;85.54
70407;BME280;57821;52.202;0.154;2023-02-14T03:03:36;103203.97;;;1.00;85.22
70407;BME280;57821;52.202;0.154;2023-02-14T03:06:05;103199.66;;;0.99;85.80
70407;BME280;57821;52.202;0.154;2023-02-14T03:08:31;103206.44;;;0.98;85.55
70407;BME280;57821;52.202;0.154;2023-02-14T03:10:59;103201.97;;;0.96;85.40
70407;BME280;57821;52.202;0.154;2023-02-14T03:16:31;103204.41;;;0.94;85.63
70407;BME280;57821;52.202;0.154;2023-02-14T03:19:16;103187.19;;;0.92;85.97
70407;BME280;57821;52.202;0.154;2023-02-14T03:21:53;103189.75;;;0.92;85.37
70407;BME280;57821;52.202;0.154;2023-02-14T03:24:45;103185.28;;;0.89;85.62
70407;BME280;57821;52.202;0.154;2023-02-14T03:27:24;103186.19;;;0.90;85.98
70407;BME280;57821;52.202;0.154;2023-02-14T03:29:59;103182.41;;;0.85;85.75
70407;BME280;57821;52.202;0.154;2023-02-14T03:40:40;103170.53;;;0.85;85.41
70407;BME280;57821;52.202;0.154;2023-02-14T03:43:16;103170.66;;;0.87;85.81
70407;BME280;57821;52.202;0.154;2023-02-14T03:48:31;103166.19;;;0.84;86.18
70407;BME280;57821;52.202;0.154;2023-02-14T03:50:59;103174.97;;;0.88;86.00
70407;BME280;57821;52.202;0.154;2023-02-14T03:53:29;103172.66;;;0.91;86.23
70407;BME280;57821;52.202;0.154;2023-02-14T03:56:09;103172.66;;;0.91;86.18
70407;BME280;57821;52.202;0.154;2023-02-14T03:58:44;103166.66;;;0.90;86.39
70407;BME280;57821;52.202;0.154;2023-02-14T04:01:18;103167.53;;;0.91;86.61
70407;BME280;57821;52.202;0.154;2023-02-14T04:03:47;103166.00;;;0.93;87.07
70407;BME280;57821;52.202;0.154;2023-02-14T04:06:16;103163.97;;;0.89;86.85
70407;BME280;57821;52.202;0.154;2023-02-14T04:08:44;103176.44;;;0.96;87.57
70407;BME280;57821;52.202;0.154;2023-02-14T04:11:10;103164.09;;;1.02;87.97
70407;BME280;57821;52.202;0.154;2023-02-14T04:13:37;103163.53;;;1.06;88.30
70407;BME280;57821;52.202;0.154;2023-02-14T04:16:04;103167.31;;;1.11;88.69
70407;BME280;57821;52.202;0.154;2023-02-14T04:18:31;103166.53;;;1.12;88.23
70407;BME280;57821;52.202;0.154;2023-02-14T04:20:58;103167.88;;;1.18;88.84
70407;BME280;57821;52.202;0.154;2023-02-14T04:23:25;103160.31;;;1.20;88.84
70407;BME280;57821;52.202;0.154;2023-02-14T04:25:52;103158.88;;;1.23;88.54
70407;BME280;57821;52.202;0.154;2023-02-14T04:28:18;103163.22;;;1.24;88.15
70407;BME280;57821;52.202;0.154;2023-02-14T04:30:45;103160.97;;;1.29;89.20
70407;BME280;57821;52.202;0.154;2023-02-14T04:33:12;103162.09;;;1.33;88.89
70407;BME280;57821;52.202;0.154;2023-02-14T04:35:38;103172.66;;;1.37;89.24
70407;BME280;57821;52.202;0.154;2023-02-14T04:38:05;103172.00;;;1.40;89.38
70407;BME280;57821;52.202;0.154;2023-02-14T04:40:31;103175.53;;;1.42;89.43
70407;BME280;57821;52.202;0.154;2023-02-14T04:42:58;103171.53;;;1.45;89.73
70407;BME280;57821;52.202;0.154;2023-02-14T04:45:24;103171.09;;;1.51;90.25
70407;BME280;57821;52.202;0.154;2023-02-14T04:47:51;103169.63;;;1.54;90.25
70407;BME280;57821;52.202;0.154;2023-02-14T04:50:17;103162.16;;;1.57;90.19
70407;BME280;57821;52.202;0.154;2023-02-14T04:52:44;103159.72;;;1.59;89.90
70407;BME280;57821;52.202;0.154;2023-02-14T04:55:10;103157.47;;;1.63;90.57
70407;BME280;57821;52.202;0.154;2023-02-14T04:57:37;103157.72;;;1.67;91.11
70407;BME280;57821;52.202;0.154;2023-02-14T05:00:04;103149.25;;;1.68;90.09
70407;BME280;57821;52.202;0.154;2023-02-14T05:02:31;103164.81;;;1.71;90.13
70407;BME280;57821;52.202;0.154;2023-02-14T05:04:57;103163.25;;;1.73;90.69
70407;BME280;57821;52.202;0.154;2023-02-14T05:07:24;103166.81;;;1.75;90.86
70407;BME280;57821;52.202;0.154;2023-02-14T05:09:50;103169.47;;;1.76;90.46
70407;BME280;57821;52.202;0.154;2023-02-14T05:12:17;103172.13;;;1.78;90.71
70407;BME280;57821;52.202;0.154;2023-02-14T05:14:43;103165.47;;;1.80;90.64
70407;BME280;57821;52.202;0.154;2023-02-14T05:17:10;103165.47;;;1.80;91.02
70407;BME280;57821;52.202;0.154;2023-02-14T05:19:36;103167.13;;;1.79;90.51
70407;BME280;57821;52.202;0.154;2023-02-14T05:22:03;103165.47;;;1.80;90.58
70407;BME280;57821;52.202;0.154;2023-02-14T05:24:30;103162.78;;;1.78;89.82
70407;BME280;57821;52.202;0.154;2023-02-14T05:26:56;103157.44;;;1.75;90.04
70407;BME280;57821;52.202;0.154;2023-02-14T05:29:23;103161.91;;;1.78;90.23
70407;BME280;57821;52.202;0.154;2023-02-14T05:31:49;103168.56;;;1.76;89.95
70407;BME280;57821;52.202;0.154;2023-02-14T05:34:16;103171.94;;;1.75;90.21
70407;BME280;57821;52.202;0.154;2023-02-14T05:36:42;103165.81;;;1.73;90.03
70407;BME280;57821;52.202;0.154;2023-02-14T05:39:09;103164.03;;;1.72;90.05
70407;BME280;57821;52.202;0.154;2023-02-14T05:41:35;103166.38;;;1.69;89.94
70407;BME280;57821;52.202;0.154;2023-02-14T05:44:02;103174.06;;;1.69;89.56
70407;BME280;57821;52.202;0.154;2023-02-14T05:46:28;103172.94;;;1.65;89.69
70407;BME280;57821;52.202;0.154;2023-02-14T05:48:55;103175.28;;;1.62;89.43
70407;BME280;57821;52.202;0.154;2023-02-14T05:51:21;103173.38;;;1.59;89.48
70407;BME280;57821;52.202;0.154;2023-02-14T05:53:48;103170.63;;;1.56;89.42
70407;BME280;57821;52.202;0.154;2023-02-14T05:56:14;103173.97;;;1.55;89.42
70407;BME280;57821;52.202;0.154;2023-02-14T05:58:41;103171.09;;;1.51;89.36
70407;BME280;57821;52.202;0.154;2023-02-14T06:01:07;103163.19;;;1.48;89.03
70407;BME280;57821;52.202;0.154;2023-02-14T06:03:34;103166.44;;;1.45;88.88
70407;BME280;57821;52.202;0.154;2023-02-14T06:06:00;103167.97;;;1.43;88.98
70407;BME280;57821;52.202;0.154;2023-02-14T06:08:27;103165.19;;;1.40;88.67
70407;BME280;57821;52.202;0.154;2023-02-14T06:10:53;103160.63;;;1.36;88.55
70407;BME280;57821;52.202;0.154;2023-02-14T06:13:20;103157.88;;;1.33;88.66
70407;BME280;57821;52.202;0.154;2023-02-14T06:15:46;103161.09;;;1.31;88.54
70407;BME280;57821;52.202;0.154;2023-02-14T06:18:13;103154.97;;;1.29;88.54
70407;BME280;57821;52.202;0.154;2023-02-14T06:20:39;103155.66;;;1.26;88.69
70407;BME280;57821;52.202;0.154;2023-02-14T06:23:06;103169.00;;;1.22;89.00
70407;BME280;57821;52.202;0.154;2023-02-14T06:25:32;103174.00;;;1.20;89.25
70407;BME280;57821;52.202;0.154;2023-02-14T06:27:59;103167.09;;;1.19;89.47
70407;BME280;57821;52.202;0.154;2023-02-14T06:30:26;103166.00;;;1.16;89.07
70407;BME280;57821;52.202;0.154;2023-02-14T06:32:53;103174.66;;;1.18;88.98
70407;BME280;57821;52.202;0.154;2023-02-14T06:35:19;103167.75;;;1.17;89.08
70407;BME280;57821;52.202;0.154;2023-02-14T06:37:46;103168.66;;;1.17;89.32
70407;BME280;57821;52.202;0.154;2023-02-14T06:40:13;103172.09;;;1.18;89.40
70407;BME280;57821;52.202;0.154;2023-02-14T06:42:39;103173.09;;;1.20;90.31
70407;BME280;57821;52.202;0.154;2023-02-14T06:45:06;103181.22;;;1.26;90.83
70407;BME280;57821;52.202;0.154;2023-02-14T06:47:33;103184.22;;;1.32;91.52
70407;BME280;57821;52.202;0.154;2023-02-14T06:50:01;103184.66;;;1.38;91.75
70407;BME280;57821;52.202;0.154;2023-02-14T06:52:27;103179.97;;;1.44;92.05
70407;BME280;57821;52.202;0.154;2023-02-14T06:54:54;103188.88;;;1.49;91.67
70407;BME280;57821;52.202;0.154;2023-02-14T06:57:21;103189.19;;;1.54;92.16
70407;BME280;57821;52.202;0.154;2023-02-14T06:59:47;103183.41;;;1.56;92.42
70407;BME280;57821;52.202;0.154;2023-02-14T07:02:13;103186.41;;;1.62;92.32
70407;BME280;57821;52.202;0.154;2023-02-14T07:04:40;103183.16;;;1.65;92.27
70407;BME280;57821;52.202;0.154;2023-02-14T07:07:06;103178.16;;;1.67;91.95
70407;BME280;57821;52.202;0.154;2023-02-14T07:09:33;103186.03;;;1.70;92.01
70407;BME280;57821;52.202;0.154;2023-02-14T07:12:00;103184.38;;;1.70;92.11
70407;BME280;57821;52.202;0.154;2023-02-14T07:14:26;103176.81;;;1.72;91.96
70407;BME280;57821;52.202;0.154;2023-02-14T07:16:53;103178.47;;;1.71;91.93
70407;BME280;57821;52.202;0.154;2023-02-14T07:19:19;103190.38;;;1.71;91.23
70407;BME280;57821;52.202;0.154;2023-02-14T07:21:45;103198.81;;;1.70;91.26
70407;BME280;57821;52.202;0.154;2023-02-14T07:24:12;103192.94;;;1.71;91.48
70407;BME280;57821;52.202;0.154;2023-02-14T07:26:38;103187.81;;;1.71;91.78
70407;BME280;57821;52.202;0.154;2023-02-14T07:29:05;103191.28;;;1.71;91.85
70407;BME280;57821;52.202;0.154;2023-02-14T07:31:31;103193.16;;;1.74;92.05
70407;BME280;57821;52.202;0.154;2023-02-14T07:33:58;103209.50;;;1.76;92.25
70407;BME280;57821;52.202;0.154;2023-02-14T07:36:25;103207.16;;;1.79;92.60
70407;BME280;57821;52.202;0.154;2023-02-14T07:38:51;103204.81;;;1.82;92.81
70407;BME280;57821;52.202;0.154;2023-02-14T07:41:18;103215.28;;;1.85;92.45
70407;BME280;57821;52.202;0.154;2023-02-14T07:43:44;103212.91;;;1.88;92.35
70407;BME280;57821;52.202;0.154;2023-02-14T07:46:11;103215.72;;;1.91;92.76
70407;BME280;57821;52.202;0.154;2023-02-14T07:48:37;103217.69;;;1.95;92.71
70407;BME280;57821;52.202;0.154;2023-02-14T07:51:04;103215.38;;;1.98;92.84
70407;BME280;57821;52.202;0.154;2023-02-14T07:53:30;103213.00;;;2.01;92.79
70407;BME280;57821;52.202;0.154;2023-02-14T07:55:57;103228.56;;;2.04;92.86
70407;BME280;57821;52.202;0.154;2023-02-14T07:58:23;103227.00;;;2.06;92.58
70407;BME280;57821;52.202;0.154;2023-02-14T08:00:50;103227.22;;;2.09;92.57
70407;BME280;57821;52.202;0.154;2023-02-14T08:03:17;103224.88;;;2.12;92.29
70407;BME280;57821;52.202;0.154;2023-02-14T08:05:43;103219.88;;;2.14;92.81
70407;BME280;57821;52.202;0.154;2023-02-14T08:08:10;103225.41;;;2.20;92.42
70407;BME280;57821;52.202;0.154;2023-02-14T08:10:37;103227.28;;;2.22;92.38
70407;BME280;57821;52.202;0.154;2023-02-14T08:13:03;103230.97;;;2.26;92.42
70407;BME280;57821;52.202;0.154;2023-02-14T08:15:34;103219.25;;;2.29;92.55
70407;BME280;57821;52.202;0.154;2023-02-14T08:18:00;103211.88;;;2.34;92.94
70407;BME280;57821;52.202;0.154;2023-02-14T08:20:27;103219.97;;;2.40;93.09
70407;BME280;57821;52.202;0.154;2023-02-14T08:22:53;103229.75;;;2.45;92.80
70407;BME280;57821;52.202;0.154;2023-02-14T08:25:20;103229.38;;;2.53;92.83
70407;BME280;57821;52.202;0.154;2023-02-14T08:27:46;103223.00;;;2.59;92.70
70407;BME280;57821;52.202;0.154;2023-02-14T08:30:13;103226.09;;;2.67;92.98
70407;BME280;57821;52.202;0.154;2023-02-14T08:32:40;103219.78;;;2.75;92.54
70407;BME280;57821;52.202;0.154;2023-02-14T08:35:08;103228.00;;;2.82;92.42
70407;BME280;57821;52.202;0.154;2023-02-14T08:37:35;103229.50;;;2.92;92.44
70407;BME280;57821;52.202;0.154;2023-02-14T08:40:01;103229.22;;;3.01;93.25
70407;BME280;57821;52.202;0.154;2023-02-14T08:42:28;103232.31;;;3.08;93.27
70407;BME280;57821;52.202;0.154;2023-02-14T08:44:54;103235.63;;;3.20;92.49
70407;BME280;57821;52.202;0.154;2023-02-14T08:47:21;103230.41;;;3.32;93.39
70407;BME280;57821;52.202;0.154;2023-02-14T08:49:47;103236.28;;;3.43;93.64
70407;BME280;57821;52.202;0.154;2023-02-14T08:52:14;103240.59;;;3.57;92.80
70407;BME280;57821;52.202;0.154;2023-02-14T08:54:41;103243.16;;;3.70;93.93
70407;BME280;57821;52.202;0.154;2023-02-14T08:57:08;103235.53;;;3.85;93.26
70407;BME280;57821;52.202;0.154;2023-02-14T08:59:34;103234.81;;;4.00;93.80
70407;BME280;57821;52.202;0.154;2023-02-14T09:02:01;103236.34;;;4.25;95.69
70407;BME280;57821;52.202;0.154;2023-02-14T09:04:27;103235.69;;;4.57;96.14
70407;BME280;57821;52.202;0.154;2023-02-14T09:06:54;103235.41;;;4.94;95.97
70407;BME280;57821;52.202;0.154;2023-02-14T09:09:20;103230.06;;;5.35;97.09
70407;BME280;57821;52.202;0.154;2023-02-14T09:11:47;103226.50;;;5.79;97.50
70407;BME280;57821;52.202;0.154;2023-02-14T09:14:13;103232.97;;;6.34;97.99
70407;BME280;57821;52.202;0.154;2023-02-14T09:16:40;103238.81;;;6.80;96.31
70407;BME280;57821;52.202;0.154;2023-02-14T09:19:06;103236.59;;;7.22;94.57
70407;BME280;57821;52.202;0.154;2023-02-14T09:21:33;103239.13;;;7.56;92.87
70407;BME280;57821;52.202;0.154;2023-02-14T09:23:59;103238.25;;;7.92;92.67
70407;BME280;57821;52.202;0.154;2023-02-14T09:26:26;103241.72;;;8.30;90.37
70407;BME280;57821;52.202;0.154;2023-02-14T09:28:52;103244.38;;;8.70;91.10
70407;BME280;57821;52.202;0.154;2023-02-14T09:31:21;103231.38;;;9.08;89.19
70407;BME280;57821;52.202;0.154;2023-02-14T09:33:49;103227.81;;;9.47;88.01
70407;BME280;57821;52.202;0.154;2023-02-14T09:36:16;103232.72;;;9.84;86.73
70407;BME280;57821;52.202;0.154;2023-02-14T09:38:42;103239.38;;;10.22;85.50
70407;BME280;57821;52.202;0.154;2023-02-14T09:41:42;103240.06;;;10.64;83.70
70407;BME280;57821;52.202;0.154;2023-02-14T09:44:05;103222.22;;;10.99;82.31
70407;BME280;57821;52.202;0.154;2023-02-14T09:46:40;103225.66;;;11.25;79.67
70407;BME280;57821;52.202;0.154;2023-02-14T09:49:12;103222.88;;;11.45;77.55
70407;BME280;57821;52.202;0.154;2023-02-14T09:51:46;103231.34;;;11.67;76.19
70407;BME280;57821;52.202;0.154;2023-02-14T09:54:25;103238.84;;;11.84;75.39
70407;BME280;57821;52.202;0.154;2023-02-14T09:59:50;103218.03;;;12.13;72.38
70407;BME280;57821;52.202;0.154;2023-02-14T10:07:42;103221.59;;;12.46;70.71
70407;BME280;57821;52.202;0.154;2023-02-14T10:13:42;103224.38;;;13.18;70.17
70407;BME280;57821;52.202;0.154;2023-02-14T10:16:25;103219.00;;;13.48;69.11
70407;BME280;57821;52.202;0.154;2023-02-14T10:18:59;103209.28;;;13.78;68.67
70407;BME280;57821;52.202;0.154;2023-02-14T10:21:32;103223.00;;;14.10;67.33
70407;BME280;57821;52.202;0.154;2023-02-14T10:26:41;103214.38;;;14.56;65.44
70407;BME280;57821;52.202;0.154;2023-02-14T10:29:12;103205.19;;;14.76;63.78
70407;BME280;57821;52.202;0.154;2023-02-14T10:31:51;103208.25;;;15.04;63.16
70407;BME280;57821;52.202;0.154;2023-02-14T10:34:45;103197.19;;;15.20;61.77
70407;BME280;57821;52.202;0.154;2023-02-14T10:45:30;103210.94;;;15.63;57.89
70407;BME280;57821;52.202;0.154;2023-02-14T10:55:42;103195.56;;;15.25;57.96
70407;BME280;57821;52.202;0.154;2023-02-14T10:58:14;103182.19;;;15.07;57.37
70407;BME280;57821;52.202;0.154;2023-02-14T11:01:00;103190.53;;;14.85;57.00
70407;BME280;57821;52.202;0.154;2023-02-14T11:03:31;103190.25;;;14.69;58.40
70407;BME280;57821;52.202;0.154;2023-02-14T11:05:58;103189.47;;;14.75;58.26
70407;BME280;57821;52.202;0.154;2023-02-14T11:08:51;103195.66;;;14.78;56.99
70407;BME280;57821;52.202;0.154;2023-02-14T11:11:23;103190.22;;;14.66;57.76
70407;BME280;57821;52.202;0.154;2023-02-14T11:13:52;103187.41;;;14.56;57.83
70407;BME280;57821;52.202;0.154;2023-02-14T11:16:31;103186.22;;;14.40;57.55
70407;BME280;57821;52.202;0.154;2023-02-14T11:21:44;103185.28;;;13.94;57.89
70407;BME280;57821;52.202;0.154;2023-02-14T11:29:32;103175.22;;;13.32;59.91
70407;BME280;57821;52.202;0.154;2023-02-14T11:32:12;103168.69;;;13.13;59.95
70407;BME280;57821;52.202;0.154;2023-02-14T11:34:43;103162.97;;;12.95;60.52
70407;BME280;57821;52.202;0.154;2023-02-14T11:37:27;103173.78;;;12.75;60.54
70407;BME280;57821;52.202;0.154;2023-02-14T11:39:57;103166.47;;;12.61;61.46
70407;BME280;57821;52.202;0.154;2023-02-14T11:42:44;103160.72;;;12.40;62.29
70407;BME280;57821;52.202;0.154;2023-02-14T11:50:57;103153.59;;;12.03;63.58
70407;BME280;57821;52.202;0.154;2023-02-14T11:53:28;103160.34;;;11.96;63.62
70407;BME280;57821;52.202;0.154;2023-02-14T11:55:57;103145.22;;;11.83;63.92
70407;BME280;57821;52.202;0.154;2023-02-14T11:58:33;103144.22;;;11.78;64.42
70407;BME280;57821;52.202;0.154;2023-02-14T12:01:02;103147.69;;;11.78;64.19
70407;BME280;57821;52.202;0.154;2023-02-14T12:03:36;103139.78;;;11.74;65.73
70407;BME280;57821;52.202;0.154;2023-02-14T12:06:05;103141.84;;;11.85;65.33
70407;BME280;57821;52.202;0.154;2023-02-14T12:08:31;103140.13;;;11.86;64.85
70407;BME280;57821;52.202;0.154;2023-02-14T12:13:31;103134.28;;;11.94;65.57
70407;BME280;57821;52.202;0.154;2023-02-14T12:15:58;103124.03;;;11.99;65.79
70407;BME280;57821;52.202;0.154;2023-02-14T12:21:23;103105.91;;;12.02;65.08
70407;BME280;57821;52.202;0.154;2023-02-14T12:26:25;103119.84;;;12.04;65.36
70407;BME280;57821;52.202;0.154;2023-02-14T12:29:17;103107.41;;;11.94;65.07
70407;BME280;57821;52.202;0.154;2023-02-14T12:31:45;103120.28;;;11.89;65.00
70407;BME280;57821;52.202;0.154;2023-02-14T12:34:13;103111.47;;;11.84;65.94
70407;BME280;57821;52.202;0.154;2023-02-14T12:37:00;103110.53;;;11.81;65.88
70407;BME280;57821;52.202;0.154;2023-02-14T12:39:34;103110.59;;;11.84;65.65
70407;BME280;57821;52.202;0.154;2023-02-14T12:42:46;103098.53;;;11.86;66.46
70407;BME280;57821;52.202;0.154;2023-02-14T12:45:25;103096.75;;;11.85;66.42
70407;BME280;57821;52.202;0.154;2023-02-14T12:48:08;103097.00;;;11.94;66.76
70407;BME280;57821;52.202;0.154;2023-02-14T12:51:03;103097.19;;;12.00;66.43
70407;BME280;57821;52.202;0.154;2023-02-14T13:13:10;103069.19;;;12.92;66.78
70407;BME280;57821;52.202;0.154;2023-02-14T13:15:47;103057.34;;;13.04;66.43
70407;BME280;57821;52.202;0.154;2023-02-14T13:18:52;103056.91;;;13.24;65.87
70407;BME280;57821;52.202;0.154;2023-02-14T13:21:24;103058.97;;;13.40;65.12
70407;BME280;57821;52.202;0.154;2023-02-14T13:23:54;103060.25;;;13.58;65.26
70407;BME280;57821;52.202;0.154;2023-02-14T13:26:32;103050.06;;;13.71;64.36
70407;BME280;57821;52.202;0.154;2023-02-14T13:29:08;103056.53;;;13.89;63.37
70407;BME280;57821;52.202;0.154;2023-02-14T13:31:36;103064.59;;;14.02;63.57
70407;BME280;57821;52.202;0.154;2023-02-14T13:36:55;103045.75;;;14.18;62.75
70407;BME280;57821;52.202;0.154;2023-02-14T13:39:31;103038.16;;;14.33;61.91
70407;BME280;57821;52.202;0.154;2023-02-14T13:42:04;103055.78;;;14.43;61.11
70407;BME280;57821;52.202;0.154;2023-02-14T13:47:05;103042.63;;;14.37;60.69
70407;BME280;57821;52.202;0.154;2023-02-14T13:49:35;103038.16;;;14.31;60.69
70407;BME280;57821;52.202;0.154;2023-02-14T13:52:05;103039.09;;;14.35;60.50
70407;BME280;57821;52.202;0.154;2023-02-14T13:54:47;103043.56;;;14.41;60.40
70407;BME280;57821;52.202;0.154;2023-02-14T13:57:30;103031.44;;;14.44;60.53
70407;BME280;57821;52.202;0.154;2023-02-14T14:00:21;103024.56;;;14.49;59.43
70407;BME280;57821;52.202;0.154;2023-02-14T14:02:52;103033.38;;;14.57;59.40
70407;BME280;57821;52.202;0.154;2023-02-14T14:18:52;103014.66;;;14.84;57.14
70407;BME280;57821;52.202;0.154;2023-02-14T14:21:33;103006.91;;;14.92;57.27
70407;BME280;57821;52.202;0.154;2023-02-14T14:24:28;103009.78;;;15.10;56.71
70407;BME280;57821;52.202;0.154;2023-02-14T14:27:00;103010.88;;;15.27;56.77
70407;BME280;57821;52.202;0.154;2023-02-14T14:29:42;103009.28;;;15.40;56.23
70407;BME280;57821;52.202;0.154;2023-02-14T14:32:11;103008.66;;;15.54;55.62
70407;BME280;57821;52.202;0.154;2023-02-14T14:34:47;103007.03;;;15.69;54.93
70407;BME280;57821;52.202;0.154;2023-02-14T14:37:17;103008.94;;;15.82;54.88
70407;BME280;57821;52.202;0.154;2023-02-14T14:40:07;102999.44;;;15.91;53.77
70407;BME280;57821;52.202;0.154;2023-02-14T14:42:38;102999.47;;;15.97;53.29
70407;BME280;57821;52.202;0.154;2023-02-14T14:45:08;102999.59;;;16.10;52.42
70407;BME280;57821;52.202;0.154;2023-02-14T14:47:44;103000.53;;;16.16;52.27
70407;BME280;57821;52.202;0.154;2023-02-14T14:50:18;102991.00;;;16.23;51.35
70407;BME280;57821;52.202;0.154;2023-02-14T14:52:48;102992.84;;;16.34;51.00
70407;BME280;57821;52.202;0.154;2023-02-14T14:55:22;102987.66;;;16.43;50.88
70407;BME280;57821;52.202;0.154;2023-02-14T14:57:55;102989.56;;;16.60;50.77
70407;BME280;57821;52.202;0.154;2023-02-14T15:00:32;102992.25;;;16.73;50.58
70407;BME280;57821;52.202;0.154;2023-02-14T15:03:04;102985.34;;;16.86;49.92
70407;BME280;57821;52.202;0.154;2023-02-14T15:05:35;102981.88;;;16.92;49.60
70407;BME280;57821;52.202;0.154;2023-02-14T15:08:21;102985.44;;;17.04;49.18
70407;BME280;57821;52.202;0.154;2023-02-14T15:10:55;102977.66;;;17.18;49.04
70407;BME280;57821;52.202;0.154;2023-02-14T15:16:02;102969.91;;;17.53;48.89
70407;BME280;57821;52.202;0.154;2023-02-14T15:18:29;102973.44;;;17.61;48.00
70407;BME280;57821;52.202;0.154;2023-02-14T15:20:56;102966.47;;;17.69;47.58
70407;BME280;57821;52.202;0.154;2023-02-14T15:23:23;102967.34;;;17.79;47.56
70407;BME280;57821;52.202;0.154;2023-02-14T15:25:50;102967.38;;;17.86;47.35
70407;BME280;57821;52.202;0.154;2023-02-14T15:28:32;102956.00;;;17.84;46.08
70407;BME280;57821;52.202;0.154;2023-02-14T15:31:01;102956.00;;;17.84;46.29